Time;durP1;ratioP1;P1;durP2;ratioP2;P2;SDS_P1;SDS_P2;PMS_P1;PMS_P2;Temp;Humidity;BMP_temperature;BMP_pressure;BME280_temperature;BME280_humidity;BME280_pressure;Samples;Min_cycle;Max_cycle;Signal;HPM_P1;HPM_P2
2022/06/10 00:00:21;;;;;;;1.55;1.55;;;;;;;;;;5046900;28;20226;-57
2022/06/10 00:02:48;;;;;;;1.50;1.50;;;;;;;;;;5048861;28;20203;-57
2022/06/10 00:05:17;;;;;;;2.53;1.70;;;;;;;;;;5048813;28;20270;-57
2022/06/10 00:07:45;;;;;;;3.17;1.90;;;;;;;;;;5048071;28;20199;-57
2022/06/10 00:10:13;;;;;;;1.67;1.58;;;;;;;;;;5043160;28;20300;-56
2022/06/10 00:12:41;;;;;;;1.60;1.50;;;;;;;;;;5045032;28;20273;-56
2022/06/10 00:15:09;;;;;;;2.58;1.48;;;;;;;;;;5048458;28;20211;-56
2022/06/10 00:17:36;;;;;;;1.90;1.80;;;;;;;;;;5043227;28;20262;-56
2022/06/10 00:20:04;;;;;;;2.25;2.03;;;;;;;;;;5045929;28;20204;-56
2022/06/10 00:22:33;;;;;;;1.88;1.77;;;;;;;;;;5041191;28;20203;-57
2022/06/10 00:25:00;;;;;;;2.38;1.90;;;;;;;;;;5048547;28;20196;-56
2022/06/10 00:27:27;;;;;;;2.42;1.80;;;;;;;;;;5046161;28;20211;-56
2022/06/10 00:29:54;;;;;;;2.25;2.05;;;;;;;;;;5044914;28;20269;-57
2022/06/10 00:32:21;;;;;;;1.30;1.17;;;;;;;;;;5045269;28;20195;-56
2022/06/10 00:34:49;;;;;;;2.45;1.60;;;;;;;;;;5048363;28;20255;-56
2022/06/10 00:37:17;;;;;;;1.60;1.60;;;;;;;;;;5049215;28;20200;-56
2022/06/10 00:39:45;;;;;;;2.38;1.80;;;;;;;;;;5048326;28;20218;-55
2022/06/10 00:42:13;;;;;;;2.10;1.83;;;;;;;;;;5048926;28;21013;-57
2022/06/10 00:44:41;;;;;;;1.98;1.85;;;;;;;;;;5048291;28;20579;-56
2022/06/10 00:47:15;;;;;;;1.60;1.60;;;;;;;;;;5048842;28;20269;-56
2022/06/10 00:49:45;;;;;;;1.73;1.65;;;;;;;;;;5049387;28;20210;-56
2022/06/10 00:52:15;;;;;;;1.73;1.70;;;;;;;;;;5048516;28;20682;-56
2022/06/10 00:54:45;;;;;;;1.92;1.83;;;;;;;;;;5048315;28;20227;-56
2022/06/10 00:57:15;;;;;;;2.22;2.13;;;;;;;;;;5046998;28;20200;-56
2022/06/10 00:59:44;;;;;;;2.25;2.08;;;;;;;;;;5046565;28;20220;-55
2022/06/10 01:02:12;;;;;;;1.45;1.45;;;;;;;;;;5047133;28;20208;-56
2022/06/10 01:04:40;;;;;;;1.50;1.50;;;;;;;;;;5047458;28;20732;-56
2022/06/10 01:07:08;;;;;;;2.50;1.77;;;;;;;;;;5047580;28;20208;-56
2022/06/10 01:09:35;;;;;;;4.32;1.80;;;;;;;;;;5044569;28;20226;-56
2022/06/10 01:12:10;;;;;;;1.83;1.83;;;;;;;;;;5046172;28;20273;-56
2022/06/10 01:14:47;;;;;;;2.45;1.85;;;;;;;;;;5046375;28;20215;-56
2022/06/10 01:17:22;;;;;;;1.70;1.70;;;;;;;;;;5045897;28;20211;-56
2022/06/10 01:19:59;;;;;;;1.75;1.75;;;;;;;;;;5047273;28;20207;-56
2022/06/10 01:22:40;;;;;;;2.00;1.80;;;;;;;;;;5046749;28;20203;-56
2022/06/10 01:25:28;;;;;;;2.05;1.95;;;;;;;;;;5047611;28;20203;-55
2022/06/10 01:28:07;;;;;;;2.35;2.22;;;;;;;;;;5040995;28;20558;-56
2022/06/10 01:30:50;;;;;;;2.22;2.13;;;;;;;;;;5046251;28;20207;-56
2022/06/10 01:33:23;;;;;;;2.30;2.30;;;;;;;;;;5044117;28;20215;-56
2022/06/10 01:35:55;;;;;;;1.90;1.80;;;;;;;;;;5044341;28;20210;-55
2022/06/10 01:38:26;;;;;;;7.60;1.67;;;;;;;;;;5047997;28;20215;-55
2022/06/10 01:40:55;;;;;;;2.35;1.63;;;;;;;;;;5047961;28;20204;-56
2022/06/10 01:43:30;;;;;;;1.90;1.83;;;;;;;;;;5047869;28;20211;-56
2022/06/10 01:46:01;;;;;;;1.90;1.80;;;;;;;;;;5042551;28;20203;-55
2022/06/10 01:48:31;;;;;;;1.80;1.80;;;;;;;;;;5045992;28;20211;-56
2022/06/10 01:51:02;;;;;;;2.40;1.60;;;;;;;;;;5045818;28;20211;-55
2022/06/10 01:53:32;;;;;;;2.03;2.03;;;;;;;;;;5046851;28;20231;-55
2022/06/10 01:56:02;;;;;;;1.87;1.77;;;;;;;;;;5041583;28;20247;-55
2022/06/10 01:58:32;;;;;;;1.75;1.75;;;;;;;;;;5042957;28;20200;-55
2022/06/10 02:01:06;;;;;;;1.60;1.60;;;;;;;;;;5045087;28;20207;-55
2022/06/10 02:03:35;;;;;;;2.15;1.73;;;;;;;;;;5042830;28;20226;-56
2022/06/10 02:06:04;;;;;;;1.90;1.60;;;;;;;;;;5045249;28;20191;-55
2022/06/10 02:08:33;;;;;;;1.93;1.80;;;;;;;;;;5045442;28;20203;-56
2022/06/10 02:11:03;;;;;;;2.43;2.00;;;;;;;;;;5047092;28;20212;-55
2022/06/10 02:13:32;;;;;;;4.10;1.90;;;;;;;;;;5040274;28;20227;-56
2022/06/10 02:16:02;;;;;;;4.93;1.83;;;;;;;;;;5042818;28;20211;-55
2022/06/10 02:18:32;;;;;;;2.60;1.93;;;;;;;;;;5045640;28;20290;-56
2022/06/10 02:21:01;;;;;;;2.00;1.90;;;;;;;;;;5041640;28;20204;-56
2022/06/10 02:23:30;;;;;;;2.47;2.03;;;;;;;;;;5039083;28;20314;-56
2022/06/10 02:25:58;;;;;;;1.60;1.57;;;;;;;;;;5045244;28;20265;-55
2022/06/10 02:28:28;;;;;;;2.20;2.00;;;;;;;;;;5042390;28;20207;-56
2022/06/10 02:30:57;;;;;;;2.07;1.90;;;;;;;;;;5043518;28;20218;-56
2022/06/10 02:33:26;;;;;;;5.13;2.10;;;;;;;;;;5043290;28;20211;-56
2022/06/10 02:35:57;;;;;;;3.70;2.13;;;;;;;;;;5044826;28;20673;-59
2022/06/10 02:38:28;;;;;;;1.80;1.70;;;;;;;;;;5045426;28;20639;-56
2022/06/10 02:40:59;;;;;;;2.20;2.00;;;;;;;;;;5045166;28;20289;-55
2022/06/10 02:43:29;;;;;;;1.70;1.70;;;;;;;;;;5045065;28;20207;-56
2022/06/10 02:45:59;;;;;;;2.10;2.00;;;;;;;;;;5044620;28;20204;-57
2022/06/10 02:48:31;;;;;;;2.13;1.97;;;;;;;;;;5044746;28;20555;-56
2022/06/10 02:50:58;;;;;;;5.00;1.80;;;;;;;;;;5044593;28;20238;-56
2022/06/10 02:53:25;;;;;;;2.07;2.07;;;;;;;;;;5047193;28;20227;-56
2022/06/10 02:55:52;;;;;;;2.40;2.30;;;;;;;;;;5044803;28;20239;-57
2022/06/10 03:01:12;;;;;;;2.30;2.20;;;;;;;;;;5047264;28;20260;-56
2022/06/10 03:03:44;;;;;;;2.10;2.00;;;;;;;;;;5046329;28;20214;-56
2022/06/10 03:06:13;;;;;;;2.13;2.13;;;;;;;;;;5045816;28;20295;-56
2022/06/10 03:08:43;;;;;;;2.47;2.27;;;;;;;;;;5048184;28;20258;-57
2022/06/10 03:11:13;;;;;;;2.00;1.90;;;;;;;;;;5048348;28;20265;-56
2022/06/10 03:13:48;;;;;;;2.10;2.00;;;;;;;;;;5048572;28;20297;-56
2022/06/10 03:16:29;;;;;;;2.10;1.80;;;;;;;;;;5044607;28;20211;-57
2022/06/10 03:19:03;;;;;;;1.90;1.90;;;;;;;;;;5048333;28;20588;-56
2022/06/10 03:21:35;;;;;;;3.07;1.90;;;;;;;;;;5044977;28;20200;-57
2022/06/10 03:24:07;;;;;;;5.73;2.63;;;;;;;;;;5049457;28;20203;-56
2022/06/10 03:26:40;;;;;;;2.13;1.90;;;;;;;;;;5047771;28;20203;-57
2022/06/10 03:29:11;;;;;;;1.77;1.77;;;;;;;;;;5049410;28;20227;-57
2022/06/10 03:31:39;;;;;;;2.70;1.93;;;;;;;;;;5049672;28;20208;-57
2022/06/10 03:34:10;;;;;;;2.10;2.00;;;;;;;;;;5048624;28;20807;-57
2022/06/10 03:36:37;;;;;;;2.27;2.10;;;;;;;;;;5050259;28;20207;-57
2022/06/10 03:39:06;;;;;;;3.77;2.23;;;;;;;;;;5048934;28;21065;-57
2022/06/10 03:41:34;;;;;;;2.40;2.30;;;;;;;;;;5048593;28;20300;-57
2022/06/10 03:44:03;;;;;;;2.17;2.07;;;;;;;;;;5048814;28;20212;-57
2022/06/10 03:46:32;;;;;;;2.83;2.00;;;;;;;;;;5048995;28;20204;-57
2022/06/10 03:49:00;;;;;;;2.00;1.90;;;;;;;;;;5045037;28;20273;-57
2022/06/10 03:51:28;;;;;;;2.37;2.27;;;;;;;;;;5047010;28;20200;-57
2022/06/10 03:53:56;;;;;;;2.47;2.20;;;;;;;;;;5048433;28;20228;-57
2022/06/10 03:56:23;;;;;;;3.27;2.47;;;;;;;;;;5049456;28;20314;-57
2022/06/10 03:58:50;;;;;;;2.33;2.23;;;;;;;;;;5047327;28;20230;-57
2022/06/10 04:01:17;;;;;;;2.47;2.38;;;;;;;;;;5048807;28;20204;-57
2022/06/10 04:03:44;;;;;;;2.30;2.17;;;;;;;;;;5048737;28;20282;-57
2022/06/10 04:06:12;;;;;;;2.67;2.43;;;;;;;;;;5048372;28;20200;-58
2022/06/10 04:08:40;;;;;;;2.40;2.30;;;;;;;;;;5048816;28;20661;-57
2022/06/10 04:11:07;;;;;;;2.38;2.28;;;;;;;;;;5048849;28;20223;-58
2022/06/10 04:13:34;;;;;;;2.28;2.17;;;;;;;;;;5048391;28;20210;-57
2022/06/10 04:16:01;;;;;;;2.30;2.20;;;;;;;;;;5048668;28;20227;-57
2022/06/10 04:18:28;;;;;;;2.10;2.00;;;;;;;;;;5047778;28;20204;-57
2022/06/10 04:20:56;;;;;;;2.78;2.58;;;;;;;;;;5048190;28;20254;-58
2022/06/10 04:23:23;;;;;;;4.38;2.55;;;;;;;;;;5044824;28;20204;-57
2022/06/10 04:25:51;;;;;;;4.50;2.70;;;;;;;;;;5048184;28;20645;-57
2022/06/10 04:28:18;;;;;;;2.63;2.47;;;;;;;;;;5048528;28;20207;-57
2022/06/10 04:30:47;;;;;;;2.90;2.70;;;;;;;;;;5046653;28;20759;-56
2022/06/10 04:33:14;;;;;;;2.55;2.45;;;;;;;;;;5047485;28;20208;-56
2022/06/10 04:35:42;;;;;;;3.90;2.42;;;;;;;;;;5048220;28;20289;-57
2022/06/10 04:38:09;;;;;;;2.40;2.40;;;;;;;;;;5048333;28;20204;-56
2022/06/10 04:40:37;;;;;;;3.00;2.80;;;;;;;;;;5046716;28;20206;-55
2022/06/10 04:43:07;;;;;;;2.72;2.53;;;;;;;;;;5047605;28;20257;-56
2022/06/10 04:45:35;;;;;;;6.40;2.65;;;;;;;;;;5047706;28;20611;-56
2022/06/10 04:48:02;;;;;;;3.00;2.90;;;;;;;;;;5047740;28;20203;-56
2022/06/10 04:50:31;;;;;;;2.55;2.38;;;;;;;;;;5048335;28;20704;-58
2022/06/10 04:52:59;;;;;;;3.13;2.15;;;;;;;;;;5047899;28;20356;-56
2022/06/10 04:55:27;;;;;;;2.45;2.35;;;;;;;;;;5046159;28;20297;-57
2022/06/10 04:57:54;;;;;;;2.17;1.90;;;;;;;;;;5047485;28;20204;-57
2022/06/10 05:00:24;;;;;;;1.88;1.88;;;;;;;;;;5047243;28;20294;-57
2022/06/10 05:02:51;;;;;;;2.10;1.90;;;;;;;;;;5046340;28;20558;-57
2022/06/10 05:05:19;;;;;;;2.58;2.47;;;;;;;;;;5047207;28;20673;-58
2022/06/10 05:07:46;;;;;;;2.40;2.40;;;;;;;;;;5046700;28;20204;-57
2022/06/10 05:10:14;;;;;;;2.35;2.17;;;;;;;;;;5047070;28;20208;-57
2022/06/10 05:12:41;;;;;;;3.03;2.78;;;;;;;;;;5041514;28;20203;-58
2022/06/10 05:15:09;;;;;;;3.50;2.45;;;;;;;;;;5048541;28;20232;-57
2022/06/10 05:17:37;;;;;;;2.92;2.83;;;;;;;;;;5049034;28;20204;-57
2022/06/10 05:20:05;;;;;;;2.70;2.60;;;;;;;;;;5049605;28;20309;-57
2022/06/10 05:22:32;;;;;;;3.17;2.65;;;;;;;;;;5047754;28;20226;-56
2022/06/10 05:24:59;;;;;;;2.65;2.55;;;;;;;;;;5048438;28;20250;-57
2022/06/10 05:27:26;;;;;;;2.25;2.22;;;;;;;;;;5047266;28;20223;-57
2022/06/10 05:29:53;;;;;;;2.67;2.47;;;;;;;;;;5048414;28;20642;-58
2022/06/10 05:32:20;;;;;;;2.63;2.38;;;;;;;;;;5043090;28;20209;-56
2022/06/10 05:34:48;;;;;;;2.70;2.60;;;;;;;;;;5037480;28;20222;-56
2022/06/10 05:37:17;;;;;;;2.92;2.17;;;;;;;;;;5047636;28;20243;-58
2022/06/10 05:39:44;;;;;;;2.45;2.03;;;;;;;;;;5045193;28;20203;-58
2022/06/10 05:42:11;;;;;;;2.28;2.00;;;;;;;;;;5041406;28;20204;-58
2022/06/10 05:44:39;;;;;;;2.80;2.53;;;;;;;;;;5048262;28;20616;-58
2022/06/10 05:47:08;;;;;;;2.65;2.45;;;;;;;;;;5048508;28;20253;-64
2022/06/10 05:49:35;;;;;;;2.75;2.55;;;;;;;;;;5048467;28;20208;-58
2022/06/10 05:52:06;;;;;;;2.08;2.08;;;;;;;;;;5047811;28;20205;-58
2022/06/10 05:54:33;;;;;;;2.55;2.45;;;;;;;;;;5046152;28;20246;-58
2022/06/10 05:57:00;;;;;;;2.58;2.30;;;;;;;;;;5045300;28;20261;-58
2022/06/10 05:59:29;;;;;;;2.58;2.50;;;;;;;;;;5045594;28;20211;-58
2022/06/10 06:01:56;;;;;;;3.35;3.15;;;;;;;;;;5045689;28;20207;-58
2022/06/10 06:04:23;;;;;;;2.25;2.15;;;;;;;;;;5028669;28;20694;-59
2022/06/10 06:06:50;;;;;;;2.92;2.80;;;;;;;;;;5026656;28;20274;-58
2022/06/10 06:09:19;;;;;;;2.50;2.40;;;;;;;;;;5047825;28;20261;-59
2022/06/10 06:11:46;;;;;;;2.83;2.33;;;;;;;;;;5048035;28;20211;-58
2022/06/10 06:14:13;;;;;;;1.80;1.80;;;;;;;;;;5047685;28;20567;-59
2022/06/10 06:16:41;;;;;;;2.70;1.88;;;;;;;;;;5048024;28;20233;-59
2022/06/10 06:19:08;;;;;;;1.63;1.63;;;;;;;;;;5041748;28;20299;-59
2022/06/10 06:21:35;;;;;;;1.60;1.60;;;;;;;;;;5042568;28;20276;-58
2022/06/10 06:24:02;;;;;;;5.15;1.70;;;;;;;;;;5046782;28;20212;-59
2022/06/10 06:26:30;;;;;;;3.05;2.03;;;;;;;;;;5033488;28;20200;-58
2022/06/10 06:28:57;;;;;;;2.03;1.92;;;;;;;;;;5040629;28;20199;-58
2022/06/10 06:31:25;;;;;;;1.75;1.65;;;;;;;;;;5041928;28;20631;-59
2022/06/10 06:33:52;;;;;;;4.43;2.30;;;;;;;;;;5048267;28;20214;-60
2022/06/10 06:36:20;;;;;;;2.55;1.92;;;;;;;;;;5047932;28;20232;-59
2022/06/10 06:38:47;;;;;;;2.60;2.40;;;;;;;;;;5047003;28;20261;-59
2022/06/10 06:41:14;;;;;;;2.30;2.20;;;;;;;;;;5047571;28;20265;-60
2022/06/10 06:43:43;;;;;;;2.00;1.90;;;;;;;;;;5050822;28;20220;-59
2022/06/10 06:46:12;;;;;;;2.05;1.95;;;;;;;;;;5051554;28;20226;-59
2022/06/10 06:48:39;;;;;;;4.53;2.10;;;;;;;;;;5051055;28;20239;-59
2022/06/10 06:51:06;;;;;;;2.00;1.88;;;;;;;;;;5049367;28;20203;-59
2022/06/10 06:53:33;;;;;;;3.70;2.60;;;;;;;;;;5049022;28;20253;-61
2022/06/10 06:56:01;;;;;;;1.95;1.90;;;;;;;;;;5038679;28;20318;-57
2022/06/10 06:58:33;;;;;;;2.33;1.85;;;;;;;;;;5043412;28;20214;-58
2022/06/10 07:01:02;;;;;;;2.15;1.95;;;;;;;;;;5051496;28;20210;-64
2022/06/10 07:03:29;;;;;;;1.77;1.67;;;;;;;;;;5051348;28;20392;-58
2022/06/10 07:05:56;;;;;;;1.65;1.55;;;;;;;;;;5050164;28;21016;-58
2022/06/10 07:08:31;;;;;;;1.85;1.77;;;;;;;;;;5051069;28;20211;-57
2022/06/10 07:10:58;;;;;;;1.48;1.40;;;;;;;;;;5033658;28;20203;-58
2022/06/10 07:13:25;;;;;;;2.05;1.95;;;;;;;;;;5050401;28;20208;-58
2022/06/10 07:15:52;;;;;;;2.00;2.00;;;;;;;;;;5050328;28;20223;-58
2022/06/10 07:18:21;;;;;;;2.45;2.28;;;;;;;;;;5050536;28;20261;-58
2022/06/10 07:20:48;;;;;;;2.50;2.05;;;;;;;;;;5050414;28;20211;-58
2022/06/10 07:23:15;;;;;;;1.95;1.77;;;;;;;;;;5049586;28;20216;-58
2022/06/10 07:25:42;;;;;;;2.00;1.90;;;;;;;;;;5048498;28;20202;-58
2022/06/10 07:28:11;;;;;;;1.80;1.70;;;;;;;;;;5047549;28;20211;-58
2022/06/10 07:30:38;;;;;;;2.30;2.10;;;;;;;;;;5050044;28;20307;-58
2022/06/10 07:33:05;;;;;;;1.83;1.70;;;;;;;;;;5050633;28;20224;-59
2022/06/10 07:35:34;;;;;;;1.55;1.55;;;;;;;;;;5049686;28;20227;-57
2022/06/10 07:38:01;;;;;;;1.67;1.55;;;;;;;;;;5049748;28;20208;-57
2022/06/10 07:43:16;;;;;;;2.08;1.70;;;;;;;;;;5047727;28;20660;-58
2022/06/10 07:45:43;;;;;;;1.73;1.63;;;;;;;;;;5037216;28;20249;-59
2022/06/10 07:48:11;;;;;;;1.45;1.40;;;;;;;;;;5046001;28;20337;-58
2022/06/10 07:50:41;;;;;;;1.30;1.30;;;;;;;;;;5043423;28;20740;-58
2022/06/10 07:53:08;;;;;;;2.03;1.80;;;;;;;;;;5039644;28;20302;-58
2022/06/10 07:55:35;;;;;;;2.17;1.98;;;;;;;;;;5050165;28;20231;-58
2022/06/10 07:58:02;;;;;;;1.83;1.80;;;;;;;;;;5050300;28;20616;-59
2022/06/10 08:00:29;;;;;;;1.85;1.75;;;;;;;;;;5050297;28;20207;-59
2022/06/10 08:02:57;;;;;;;1.73;1.60;;;;;;;;;;5041578;28;20196;-58
2022/06/10 08:05:24;;;;;;;1.50;1.50;;;;;;;;;;5050308;28;20238;-59
2022/06/10 08:07:53;;;;;;;1.00;1.00;;;;;;;;;;5050064;28;20230;-59
2022/06/10 08:10:21;;;;;;;1.38;1.27;;;;;;;;;;5048651;28;20629;-59
2022/06/10 08:12:48;;;;;;;1.25;1.13;;;;;;;;;;5049665;28;20215;-60
2022/06/10 08:15:16;;;;;;;1.33;1.25;;;;;;;;;;5048891;28;20208;-61
2022/06/10 08:17:43;;;;;;;2.65;1.50;;;;;;;;;;5049571;28;20204;-66
2022/06/10 08:20:15;;;;;;;1.00;1.00;;;;;;;;;;5049790;28;20211;-61
2022/06/10 08:22:42;;;;;;;1.20;1.17;;;;;;;;;;5050146;28;20861;-64
2022/06/10 08:25:11;;;;;;;1.42;1.27;;;;;;;;;;5049789;28;20204;-61
2022/06/10 08:27:39;;;;;;;1.15;1.02;;;;;;;;;;5049279;28;20261;-60
2022/06/10 08:30:07;;;;;;;1.95;1.30;;;;;;;;;;5049718;28;20210;-60
2022/06/10 08:32:34;;;;;;;1.60;1.42;;;;;;;;;;5049395;28;20261;-59
2022/06/10 08:35:01;;;;;;;1.27;1.27;;;;;;;;;;5048261;28;20215;-60
2022/06/10 08:37:28;;;;;;;1.40;1.40;;;;;;;;;;5039440;28;20645;-60
2022/06/10 08:39:55;;;;;;;1.23;1.23;;;;;;;;;;5049682;28;20211;-61
2022/06/10 08:42:31;;;;;;;1.38;1.08;;;;;;;;;;5049624;28;20254;-61
2022/06/10 08:45:02;;;;;;;0.85;0.85;;;;;;;;;;5049602;28;20628;-61
2022/06/10 08:47:35;;;;;;;1.73;1.15;;;;;;;;;;5048569;28;20204;-62
2022/06/10 08:50:26;;;;;;;2.33;1.33;;;;;;;;;;5049366;28;20265;-61
2022/06/10 08:52:58;;;;;;;1.00;1.00;;;;;;;;;;5048947;28;20659;-62
2022/06/10 08:55:37;;;;;;;1.25;1.02;;;;;;;;;;5047421;28;20239;-62
2022/06/10 08:58:18;;;;;;;4.03;1.00;;;;;;;;;;5049353;28;20552;-61
2022/06/10 09:00:46;;;;;;;1.08;1.08;;;;;;;;;;5045971;28;20199;-60
2022/06/10 09:03:19;;;;;;;0.90;0.90;;;;;;;;;;5048831;28;20200;-59
2022/06/10 09:05:48;;;;;;;0.75;0.73;;;;;;;;;;5046625;28;20269;-59
2022/06/10 09:08:16;;;;;;;0.90;0.90;;;;;;;;;;5048201;28;20211;-60
2022/06/10 09:10:46;;;;;;;0.73;0.73;;;;;;;;;;5035880;28;20208;-59
2022/06/10 09:13:22;;;;;;;1.13;0.80;;;;;;;;;;5047553;28;20285;-60
2022/06/10 09:15:51;;;;;;;0.68;0.68;;;;;;;;;;5047570;28;20374;-60
2022/06/10 09:18:23;;;;;;;1.10;0.70;;;;;;;;;;5048306;28;20697;-61
2022/06/10 09:20:53;;;;;;;2.25;0.98;;;;;;;;;;5047109;28;20277;-60
2022/06/10 09:23:26;;;;;;;0.95;0.80;;;;;;;;;;5045988;28;20207;-60
2022/06/10 09:25:56;;;;;;;0.98;0.98;;;;;;;;;;5048087;28;20204;-60
2022/06/10 09:28:25;;;;;;;0.85;0.85;;;;;;;;;;5048115;28;20215;-59
2022/06/10 09:30:56;;;;;;;1.05;1.05;;;;;;;;;;5047762;28;20335;-60
2022/06/10 09:33:27;;;;;;;0.60;0.60;;;;;;;;;;5047305;28;20208;-59
2022/06/10 09:35:56;;;;;;;0.90;0.90;;;;;;;;;;5047760;28;20204;-60
2022/06/10 09:38:27;;;;;;;0.80;0.80;;;;;;;;;;5047577;28;20207;-60
2022/06/10 09:40:59;;;;;;;1.85;0.90;;;;;;;;;;5047618;28;20220;-60
2022/06/10 09:43:45;;;;;;;0.63;0.63;;;;;;;;;;5047464;28;20207;-60
2022/06/10 09:46:19;;;;;;;0.90;0.90;;;;;;;;;;5047565;28;20213;-60
2022/06/10 09:48:53;;;;;;;1.58;0.80;;;;;;;;;;5029375;28;20813;-59
2022/06/10 09:51:23;;;;;;;0.95;0.90;;;;;;;;;;5047658;28;20212;-59
2022/06/10 09:53:58;;;;;;;1.27;0.70;;;;;;;;;;5047302;28;20223;-59
2022/06/10 09:56:32;;;;;;;0.82;0.80;;;;;;;;;;5048157;28;20227;-61
2022/06/10 09:59:09;;;;;;;0.73;0.73;;;;;;;;;;5048099;28;20268;-58
2022/06/10 10:01:39;;;;;;;2.22;0.85;;;;;;;;;;5046174;28;20226;-58
2022/06/10 10:04:33;;;;;;;1.30;1.20;;;;;;;;;;5047557;28;20204;-58
2022/06/10 10:07:05;;;;;;;1.33;0.80;;;;;;;;;;5000852;28;20314;-58
2022/06/10 10:09:40;;;;;;;1.58;0.95;;;;;;;;;;5047517;28;20211;-58
2022/06/10 10:12:15;;;;;;;1.10;1.00;;;;;;;;;;5047895;28;20215;-58
2022/06/10 10:14:47;;;;;;;3.70;1.00;;;;;;;;;;5047424;28;20200;-57
2022/06/10 10:17:31;;;;;;;1.13;0.85;;;;;;;;;;5046879;28;20250;-58
2022/06/10 10:20:03;;;;;;;0.95;0.82;;;;;;;;;;5047439;28;20224;-58
2022/06/10 10:22:37;;;;;;;0.95;0.80;;;;;;;;;;5047708;28;20738;-58
2022/06/10 10:25:06;;;;;;;0.90;0.90;;;;;;;;;;5047034;28;20214;-60
2022/06/10 10:27:34;;;;;;;1.30;1.20;;;;;;;;;;5047543;28;20262;-59
2022/06/10 10:30:06;;;;;;;1.40;1.40;;;;;;;;;;5046553;28;20203;-59
2022/06/10 10:32:36;;;;;;;1.65;1.10;;;;;;;;;;5046607;28;20782;-59
2022/06/10 10:35:09;;;;;;;1.02;1.00;;;;;;;;;;5047838;28;20211;-59
2022/06/10 10:37:38;;;;;;;1.48;1.05;;;;;;;;;;5046308;28;20237;-58
2022/06/10 10:40:07;;;;;;;3.60;1.20;;;;;;;;;;5045352;28;20204;-59
2022/06/10 10:42:35;;;;;;;0.90;0.90;;;;;;;;;;5046954;28;20216;-59
2022/06/10 10:45:05;;;;;;;1.15;0.80;;;;;;;;;;5047172;28;20211;-58
2022/06/10 10:47:34;;;;;;;0.90;0.90;;;;;;;;;;5046426;28;20243;-58
2022/06/10 10:50:10;;;;;;;3.60;1.10;;;;;;;;;;5046991;28;20649;-58
2022/06/10 10:52:40;;;;;;;1.65;0.90;;;;;;;;;;5028276;28;20235;-59
2022/06/10 10:55:20;;;;;;;1.13;1.13;;;;;;;;;;5043131;28;20242;-59
2022/06/10 10:57:52;;;;;;;1.08;0.85;;;;;;;;;;5046917;28;20231;-58
2022/06/10 11:00:29;;;;;;;0.95;0.90;;;;;;;;;;5047170;28;20220;-59
2022/06/10 11:02:58;;;;;;;1.13;1.10;;;;;;;;;;5046672;28;20211;-59
2022/06/10 11:05:31;;;;;;;1.45;1.30;;;;;;;;;;5046883;28;20212;-59
2022/06/10 11:08:11;;;;;;;1.10;0.80;;;;;;;;;;5046927;28;20208;-59
2022/06/10 11:10:41;;;;;;;1.52;1.00;;;;;;;;;;5047135;28;20215;-58
2022/06/10 11:13:09;;;;;;;1.65;0.80;;;;;;;;;;5046748;28;20657;-58
2022/06/10 11:15:36;;;;;;;0.98;0.88;;;;;;;;;;5042721;28;20743;-58
2022/06/10 11:18:04;;;;;;;2.28;1.25;;;;;;;;;;5038915;28;20219;-59
2022/06/10 11:20:33;;;;;;;1.52;0.75;;;;;;;;;;5045817;28;20622;-59
2022/06/10 11:23:21;;;;;;;1.08;0.98;;;;;;;;;;5046299;28;20215;-59
2022/06/10 11:26:02;;;;;;;0.93;0.93;;;;;;;;;;5041829;28;20215;-59
2022/06/10 11:28:34;;;;;;;2.28;0.90;;;;;;;;;;5047308;28;20276;-59
2022/06/10 11:31:01;;;;;;;1.30;1.30;;;;;;;;;;5049928;28;20689;-59
2022/06/10 11:33:32;;;;;;;3.03;1.00;;;;;;;;;;5049827;28;20649;-59
2022/06/10 11:36:04;;;;;;;0.98;0.98;;;;;;;;;;5049856;28;20433;-59
2022/06/10 11:38:32;;;;;;;1.02;1.00;;;;;;;;;;5049832;28;20231;-59
2022/06/10 11:41:01;;;;;;;1.70;1.00;;;;;;;;;;5049689;28;20233;-59
2022/06/10 11:43:29;;;;;;;0.85;0.85;;;;;;;;;;5049652;28;20200;-59
2022/06/10 11:45:58;;;;;;;1.85;1.10;;;;;;;;;;5043047;28;20253;-59
2022/06/10 11:48:32;;;;;;;1.00;1.00;;;;;;;;;;5043396;28;20665;-59
2022/06/10 11:51:02;;;;;;;1.08;0.90;;;;;;;;;;5049975;28;20215;-59
2022/06/10 11:53:37;;;;;;;2.55;1.05;;;;;;;;;;5047860;28;20328;-58
2022/06/10 12:01:52;;;;;;;3.72;1.00;;;;;;;;;;5027158;28;20242;-58
2022/06/10 12:04:24;;;;;;;0.98;0.98;;;;;;;;;;5039561;28;20212;-58
2022/06/10 12:06:53;;;;;;;0.80;0.80;;;;;;;;;;5049985;28;20206;-58
2022/06/10 12:09:23;;;;;;;5.75;1.00;;;;;;;;;;5050257;28;20397;-58
2022/06/10 12:11:52;;;;;;;2.25;0.95;;;;;;;;;;5049634;28;20265;-60
2022/06/10 12:14:20;;;;;;;1.30;0.93;;;;;;;;;;5049737;28;20218;-59
2022/06/10 12:16:49;;;;;;;2.17;0.70;;;;;;;;;;5049687;28;20724;-59
2022/06/10 12:19:21;;;;;;;0.70;0.70;;;;;;;;;;5049460;28;20397;-59
2022/06/10 12:21:49;;;;;;;1.52;0.70;;;;;;;;;;5049441;28;20219;-59
2022/06/10 12:24:18;;;;;;;1.10;0.80;;;;;;;;;;5049070;28;20285;-59
2022/06/10 12:26:49;;;;;;;2.05;1.08;;;;;;;;;;5048888;28;20212;-59
2022/06/10 12:29:17;;;;;;;1.10;1.00;;;;;;;;;;5049026;28;20210;-58
2022/06/10 12:32:00;;;;;;;2.78;1.23;;;;;;;;;;5048946;28;20212;-57
2022/06/10 12:34:33;;;;;;;0.82;0.82;;;;;;;;;;5048380;28;20665;-57
2022/06/10 12:37:03;;;;;;;1.27;0.93;;;;;;;;;;5048850;28;20239;-57
2022/06/10 12:39:32;;;;;;;1.52;0.90;;;;;;;;;;5048069;28;20204;-57
2022/06/10 12:42:03;;;;;;;1.40;1.10;;;;;;;;;;5048711;28;20212;-57
2022/06/10 12:44:31;;;;;;;3.03;1.00;;;;;;;;;;5048856;28;20207;-57
2022/06/10 12:47:00;;;;;;;1.40;1.30;;;;;;;;;;5048651;28;20303;-57
2022/06/10 12:49:39;;;;;;;3.70;0.90;;;;;;;;;;5048523;28;20200;-57
2022/06/10 12:52:28;;;;;;;0.85;0.85;;;;;;;;;;5046792;28;20203;-57
2022/06/10 12:54:59;;;;;;;2.63;0.80;;;;;;;;;;5047197;28;20243;-57
2022/06/10 12:57:37;;;;;;;1.58;1.02;;;;;;;;;;5048341;28;20230;-57
2022/06/10 13:00:25;;;;;;;0.70;0.70;;;;;;;;;;5048483;28;20245;-57
2022/06/10 13:02:53;;;;;;;1.02;0.98;;;;;;;;;;5042490;28;20212;-59
2022/06/10 13:05:21;;;;;;;1.85;0.90;;;;;;;;;;5048680;28;20609;-57
2022/06/10 13:07:50;;;;;;;3.30;1.13;;;;;;;;;;5048385;28;20261;-56
2022/06/10 13:10:44;;;;;;;0.80;0.80;;;;;;;;;;5048202;28;20624;-56
2022/06/10 13:13:13;;;;;;;2.38;1.10;;;;;;;;;;5000789;28;20287;-57
2022/06/10 13:15:42;;;;;;;1.27;0.95;;;;;;;;;;5048386;28;20212;-57
2022/06/10 13:18:22;;;;;;;0.88;0.88;;;;;;;;;;5048356;28;20273;-58
2022/06/10 13:20:50;;;;;;;0.82;0.82;;;;;;;;;;5035643;28;20212;-58
2022/06/10 13:23:21;;;;;;;1.50;1.00;;;;;;;;;;5045601;28;20209;-57
2022/06/10 13:25:50;;;;;;;0.90;0.90;;;;;;;;;;5034512;28;20218;-58
2022/06/10 13:28:24;;;;;;;0.88;0.80;;;;;;;;;;5048200;28;20210;-59
2022/06/10 13:30:51;;;;;;;3.53;1.10;;;;;;;;;;5040928;28;20720;-59
2022/06/10 13:33:19;;;;;;;0.80;0.80;;;;;;;;;;5043878;28;20208;-58
2022/06/10 13:35:53;;;;;;;1.30;0.70;;;;;;;;;;5043994;28;20615;-59
2022/06/10 13:38:23;;;;;;;1.20;1.00;;;;;;;;;;5032832;28;20235;-58
2022/06/10 13:40:52;;;;;;;1.02;0.80;;;;;;;;;;5040427;28;20219;-59
2022/06/10 13:43:24;;;;;;;1.75;0.75;;;;;;;;;;5043698;28;20649;-59
2022/06/10 13:45:51;;;;;;;1.13;0.70;;;;;;;;;;5043145;28;20666;-58
2022/06/10 13:48:19;;;;;;;3.15;1.05;;;;;;;;;;5043945;28;20204;-59
2022/06/10 13:51:14;;;;;;;1.00;0.85;;;;;;;;;;5042607;28;20203;-59
2022/06/10 13:53:53;;;;;;;1.10;1.08;;;;;;;;;;5041545;28;20366;-59
2022/06/10 13:56:25;;;;;;;0.90;0.90;;;;;;;;;;5043511;28;20231;-59
2022/06/10 13:58:53;;;;;;;0.70;0.70;;;;;;;;;;5043644;28;20231;-58
2022/06/10 14:01:21;;;;;;;0.80;0.80;;;;;;;;;;5043582;28;20211;-58
2022/06/10 14:03:50;;;;;;;1.40;0.88;;;;;;;;;;5043969;28;20215;-58
2022/06/10 14:06:22;;;;;;;0.85;0.75;;;;;;;;;;5041518;28;20506;-59
2022/06/10 14:08:54;;;;;;;1.02;1.00;;;;;;;;;;5043905;28;20253;-60
2022/06/10 14:11:24;;;;;;;1.02;0.80;;;;;;;;;;5043759;28;20768;-59
2022/06/10 14:13:53;;;;;;;0.85;0.75;;;;;;;;;;5043882;28;20211;-61
2022/06/10 14:16:20;;;;;;;1.00;0.80;;;;;;;;;;5043663;28;20640;-59
2022/06/10 14:18:47;;;;;;;0.70;0.70;;;;;;;;;;5043620;28;20273;-59
2022/06/10 14:21:14;;;;;;;0.82;0.70;;;;;;;;;;5043168;28;20214;-59
2022/06/10 14:23:56;;;;;;;1.38;1.10;;;;;;;;;;5043333;28;20211;-59
2022/06/10 14:26:26;;;;;;;0.85;0.85;;;;;;;;;;5043588;28;20518;-59
2022/06/10 14:28:54;;;;;;;2.38;1.00;;;;;;;;;;5044126;28;20211;-59
2022/06/10 14:31:26;;;;;;;1.92;0.77;;;;;;;;;;5043670;28;20291;-59
2022/06/10 14:33:55;;;;;;;2.15;1.00;;;;;;;;;;5029234;28;20231;-59
2022/06/10 14:36:23;;;;;;;1.50;1.13;;;;;;;;;;5031655;28;20254;-59
2022/06/10 14:39:05;;;;;;;1.95;1.23;;;;;;;;;;5042087;28;20234;-59
2022/06/10 14:41:34;;;;;;;0.95;0.95;;;;;;;;;;5037938;28;20295;-59
2022/06/10 14:44:02;;;;;;;2.95;1.02;;;;;;;;;;5028426;28;20210;-59
2022/06/10 14:46:30;;;;;;;0.75;0.75;;;;;;;;;;5043077;28;20214;-58
2022/06/10 14:48:59;;;;;;;0.98;0.98;;;;;;;;;;5043510;28;20627;-58
2022/06/10 14:51:29;;;;;;;3.08;0.73;;;;;;;;;;5043290;28;20206;-59
2022/06/10 14:53:59;;;;;;;1.00;0.80;;;;;;;;;;5043271;28;20223;-59
2022/06/10 14:56:31;;;;;;;0.90;0.90;;;;;;;;;;5042305;28;20265;-59
2022/06/10 14:59:00;;;;;;;2.20;1.00;;;;;;;;;;5042671;28;20232;-58
2022/06/10 15:01:28;;;;;;;1.40;0.80;;;;;;;;;;5042588;28;20294;-58
2022/06/10 15:03:55;;;;;;;0.68;0.68;;;;;;;;;;5044941;28;20207;-59
2022/06/10 15:06:24;;;;;;;1.33;0.82;;;;;;;;;;5046125;28;20223;-57
2022/06/10 15:08:53;;;;;;;2.35;0.90;;;;;;;;;;5046591;28;20250;-58
2022/06/10 15:11:21;;;;;;;1.30;1.20;;;;;;;;;;5045830;28;21018;-58